Time;durP1;ratioP1;P1;durP2;ratioP2;P2;SDS_P1;SDS_P2;PMS_P1;PMS_P2;Temp;Humidity;BMP_temperature;BMP_pressure;BME280_temperature;BME280_humidity;BME280_pressure;Samples;Min_cycle;Max_cycle;Signal;HPM_P1;HPM_P2
2023/08/09 00:01:55;;;;;;;1.15;1.05;;;18.60;99.90;;;;;;5089424;28;20241;-73
2023/08/09 00:04:23;;;;;;;1.02;1.02;;;18.50;99.90;;;;;;5086017;28;20225;-73
2023/08/09 00:06:50;;;;;;;1.10;1.00;;;18.40;99.90;;;;;;5068031;28;20217;-73
2023/08/09 00:09:17;;;;;;;1.10;1.10;;;18.30;99.90;;;;;;5063558;28;20293;-71
2023/08/09 00:11:44;;;;;;;1.00;1.00;;;18.20;99.90;;;;;;5061707;28;20323;-73
2023/08/09 00:14:11;;;;;;;1.10;1.10;;;18.10;99.90;;;;;;5063036;28;20650;-72
2023/08/09 00:16:38;;;;;;;1.08;1.08;;;18.10;99.90;;;;;;5063582;28;20276;-72
2023/08/09 00:19:05;;;;;;;1.00;1.00;;;18.10;99.90;;;;;;5061511;28;20199;-72
2023/08/09 00:21:33;;;;;;;1.52;1.15;;;18.20;99.90;;;;;;5059657;28;20239;-73
2023/08/09 00:24:00;;;;;;;1.30;1.20;;;18.20;99.90;;;;;;5061769;28;20731;-73
2023/08/09 00:26:27;;;;;;;1.60;1.10;;;18.20;99.90;;;;;;5063623;28;20734;-73
2023/08/09 00:28:54;;;;;;;2.55;1.20;;;18.10;99.90;;;;;;5062515;28;20292;-72
2023/08/09 00:31:21;;;;;;;1.00;1.00;;;18.00;99.90;;;;;;5060188;28;20233;-73
2023/08/09 00:33:48;;;;;;;1.27;1.25;;;17.90;99.90;;;;;;5058899;28;20313;-73
2023/08/09 00:36:15;;;;;;;1.38;1.27;;;17.90;99.90;;;;;;5081103;28;20179;-73
2023/08/09 00:38:44;;;;;;;1.25;1.20;;;17.90;99.90;;;;;;5070255;28;20871;-72
2023/08/09 00:41:11;;;;;;;1.40;1.30;;;17.90;99.90;;;;;;5062139;28;20202;-72
2023/08/09 00:43:38;;;;;;;1.10;1.10;;;17.90;99.90;;;;;;5058839;28;20309;-72
2023/08/09 00:46:05;;;;;;;1.00;1.00;;;17.90;99.90;;;;;;5058825;28;20907;-73
2023/08/09 00:48:32;;;;;;;1.10;1.00;;;17.90;99.90;;;;;;5060784;28;20291;-72
2023/08/09 00:50:59;;;;;;;1.35;1.25;;;17.90;99.90;;;;;;5063310;28;20209;-73
2023/08/09 00:53:26;;;;;;;1.00;1.00;;;18.00;99.90;;;;;;5062184;28;20877;-72
2023/08/09 00:55:55;;;;;;;1.25;1.15;;;18.00;99.90;;;;;;5058111;28;20194;-73
2023/08/09 00:58:21;;;;;;;1.17;1.08;;;18.00;99.90;;;;;;5058808;28;20289;-72
2023/08/09 01:00:49;;;;;;;1.20;1.10;;;18.00;99.90;;;;;;5061015;28;20252;-72
2023/08/09 01:03:16;;;;;;;1.30;1.20;;;18.00;99.90;;;;;;5059275;28;20234;-72
2023/08/09 01:05:52;;;;;;;1.10;1.10;;;18.00;99.90;;;;;;5058936;28;20309;-73
2023/08/09 01:08:27;;;;;;;1.17;1.10;;;17.90;99.90;;;;;;5057996;28;20200;-72
2023/08/09 01:11:05;;;;;;;1.10;1.10;;;17.90;99.90;;;;;;5060131;28;20198;-72
2023/08/09 01:13:33;;;;;;;1.30;1.20;;;17.90;99.90;;;;;;5062568;28;20318;-72
2023/08/09 01:16:00;;;;;;;0.95;0.95;;;18.00;99.90;;;;;;5053840;28;20571;-72
2023/08/09 01:18:29;;;;;;;1.23;1.15;;;18.00;99.90;;;;;;5060340;28;20233;-72
2023/08/09 01:20:56;;;;;;;1.25;1.15;;;18.00;99.90;;;;;;5060505;28;20660;-72
2023/08/09 01:23:23;;;;;;;1.20;1.10;;;18.00;99.90;;;;;;5058213;28;20993;-73
2023/08/09 01:25:51;;;;;;;1.23;1.13;;;18.00;99.90;;;;;;5059077;28;20265;-73
2023/08/09 01:28:18;;;;;;;1.42;1.33;;;17.90;99.90;;;;;;5059387;28;20292;-73
2023/08/09 01:30:45;;;;;;;1.17;1.15;;;17.90;99.90;;;;;;5059788;28;20289;-72
2023/08/09 01:33:13;;;;;;;1.48;1.33;;;17.80;99.90;;;;;;5059301;28;20222;-73
2023/08/09 01:35:48;;;;;;;1.65;1.02;;;17.90;99.90;;;;;;5053004;28;20721;-72
2023/08/09 01:38:21;;;;;;;1.27;1.05;;;17.90;99.90;;;;;;5058101;28;20275;-73
2023/08/09 01:40:52;;;;;;;0.95;0.95;;;17.90;99.90;;;;;;5058534;28;20287;-72
2023/08/09 01:43:19;;;;;;;1.35;1.25;;;18.00;99.90;;;;;;5063453;28;20811;-72
2023/08/09 01:45:46;;;;;;;1.38;1.27;;;18.10;99.90;;;;;;5056013;28;20290;-72
2023/08/09 01:48:13;;;;;;;1.02;1.02;;;18.10;99.90;;;;;;5061607;28;20663;-73
2023/08/09 01:50:41;;;;;;;1.00;1.00;;;18.20;99.90;;;;;;5059020;28;20220;-73
2023/08/09 01:53:08;;;;;;;1.20;1.15;;;18.20;99.90;;;;;;5061249;28;20199;-74
2023/08/09 01:55:35;;;;;;;1.15;1.08;;;18.20;99.90;;;;;;5060533;28;20202;-72
2023/08/09 01:58:05;;;;;;;2.03;1.00;;;18.10;99.90;;;;;;5056474;28;20226;-72
2023/08/09 02:00:32;;;;;;;1.30;1.20;;;18.10;99.90;;;;;;5059591;28;20656;-73
2023/08/09 02:02:59;;;;;;;1.30;1.20;;;18.00;99.90;;;;;;5057067;28;20572;-73
2023/08/09 02:05:26;;;;;;;1.05;1.00;;;18.00;99.90;;;;;;5055871;28;20290;-72
2023/08/09 02:07:52;;;;;;;1.08;1.08;;;17.90;99.90;;;;;;5059217;28;20279;-73
2023/08/09 02:10:19;;;;;;;1.20;1.10;;;17.90;99.90;;;;;;5058192;28;20223;-72
2023/08/09 02:12:48;;;;;;;1.40;1.30;;;17.90;99.90;;;;;;5057683;28;20226;-74
2023/08/09 02:15:18;;;;;;;1.30;1.20;;;17.90;99.90;;;;;;5056522;28;20278;-72
2023/08/09 02:17:46;;;;;;;1.10;1.10;;;17.80;99.90;;;;;;5056077;28;20294;-73
2023/08/09 02:20:13;;;;;;;1.20;1.10;;;17.80;99.90;;;;;;5056197;28;20202;-72
2023/08/09 02:22:41;;;;;;;1.35;1.30;;;17.80;99.90;;;;;;5059420;28;20198;-73
2023/08/09 02:25:10;;;;;;;1.30;1.20;;;17.90;99.90;;;;;;5058175;28;20704;-73
2023/08/09 02:27:37;;;;;;;1.48;1.30;;;17.90;99.90;;;;;;5058090;28;20226;-72
2023/08/09 02:30:06;;;;;;;1.20;1.20;;;17.90;99.90;;;;;;5059802;28;20202;-72
2023/08/09 02:32:36;;;;;;;1.10;1.10;;;17.90;99.90;;;;;;5076070;28;20202;-73
2023/08/09 02:35:05;;;;;;;1.08;1.08;;;17.90;99.90;;;;;;5067162;28;20225;-73
2023/08/09 02:37:32;;;;;;;1.08;1.08;;;17.90;99.90;;;;;;5073640;28;20202;-72
2023/08/09 02:39:59;;;;;;;1.05;1.05;;;17.90;99.90;;;;;;5060047;28;20202;-72
2023/08/09 02:42:26;;;;;;;1.20;1.10;;;17.90;99.90;;;;;;5058785;28;20202;-72
2023/08/09 02:44:53;;;;;;;1.08;1.08;;;17.80;99.90;;;;;;5054966;28;20218;-73
2023/08/09 02:47:20;;;;;;;1.25;1.15;;;17.80;99.90;;;;;;5054007;28;20220;-73
2023/08/09 02:49:48;;;;;;;0.90;0.90;;;17.80;99.90;;;;;;5059462;28;20275;-73
2023/08/09 02:52:15;;;;;;;0.85;0.85;;;17.90;99.90;;;;;;5055324;28;20233;-72
2023/08/09 02:54:42;;;;;;;1.00;1.00;;;17.90;99.90;;;;;;5054764;28;20218;-72
2023/08/09 02:57:09;;;;;;;1.52;1.05;;;17.90;99.90;;;;;;5061264;28;20311;-72
2023/08/09 02:59:36;;;;;;;1.73;1.23;;;18.00;99.90;;;;;;5058359;28;20625;-73
2023/08/09 03:02:03;;;;;;;0.90;0.90;;;18.00;99.90;;;;;;5056794;28;20225;-73
2023/08/09 03:04:30;;;;;;;1.00;1.00;;;18.00;99.90;;;;;;5054053;28;20288;-72
2023/08/09 03:06:58;;;;;;;1.50;1.33;;;18.00;99.90;;;;;;5058741;28;20249;-72
2023/08/09 03:09:26;;;;;;;1.23;1.10;;;17.90;99.90;;;;;;5058011;28;20286;-73
2023/08/09 03:11:53;;;;;;;1.38;1.27;;;17.80;99.90;;;;;;5056206;28;20195;-73
2023/08/09 03:14:20;;;;;;;1.10;1.10;;;17.70;99.90;;;;;;5057372;28;20313;-72
2023/08/09 03:16:47;;;;;;;0.90;0.90;;;17.80;99.90;;;;;;5059345;28;20273;-73
2023/08/09 03:19:14;;;;;;;1.10;1.10;;;17.80;99.90;;;;;;5054630;28;20238;-73
2023/08/09 03:21:41;;;;;;;1.00;1.00;;;17.90;99.90;;;;;;5057825;28;20229;-74
2023/08/09 03:24:09;;;;;;;1.30;1.20;;;17.90;99.90;;;;;;5058896;28;20218;-73
2023/08/09 03:26:36;;;;;;;1.13;1.13;;;17.90;99.90;;;;;;5059178;28;20317;-73
2023/08/09 03:29:03;;;;;;;1.00;1.00;;;17.90;99.90;;;;;;5056279;28;20588;-73
2023/08/09 03:31:30;;;;;;;1.08;1.08;;;17.90;99.90;;;;;;5061660;28;20206;-74
2023/08/09 03:34:00;;;;;;;1.30;1.20;;;17.90;99.90;;;;;;5059539;28;20929;-73
2023/08/09 03:36:27;;;;;;;1.00;0.90;;;17.80;99.90;;;;;;5056960;28;20677;-74
2023/08/09 03:38:54;;;;;;;1.25;1.10;;;17.90;99.90;;;;;;5057971;28;20226;-73
2023/08/09 03:41:22;;;;;;;0.88;0.88;;;17.90;99.90;;;;;;5059811;28;20212;-74
2023/08/09 03:43:49;;;;;;;1.83;1.05;;;17.90;99.90;;;;;;5059661;28;20245;-74
2023/08/09 03:46:16;;;;;;;1.20;1.10;;;18.00;99.90;;;;;;5059325;28;20202;-73
2023/08/09 03:48:43;;;;;;;1.08;1.08;;;17.90;99.90;;;;;;5056454;28;20681;-73
2023/08/09 03:51:10;;;;;;;1.13;1.10;;;17.90;99.90;;;;;;5057601;28;20256;-73
2023/08/09 03:53:37;;;;;;;1.20;0.90;;;17.80;99.90;;;;;;5055416;28;20222;-73
2023/08/09 03:56:04;;;;;;;1.10;1.10;;;17.80;99.90;;;;;;5057852;28;20715;-73
2023/08/09 03:58:33;;;;;;;1.10;1.10;;;17.70;99.90;;;;;;5053781;28;20252;-73
2023/08/09 04:01:00;;;;;;;0.98;0.98;;;17.70;99.90;;;;;;5053382;28;20298;-74
2023/08/09 04:03:27;;;;;;;1.67;0.90;;;17.60;99.90;;;;;;5059465;28;20226;-73
2023/08/09 04:05:54;;;;;;;1.20;1.10;;;17.60;99.90;;;;;;5057031;28;20363;-73
2023/08/09 04:08:21;;;;;;;1.08;1.02;;;17.60;99.90;;;;;;5060493;28;20305;-73
2023/08/09 04:10:49;;;;;;;2.20;1.20;;;17.60;99.90;;;;;;5057236;28;20203;-73
2023/08/09 04:13:15;;;;;;;1.00;1.00;;;17.60;99.90;;;;;;5058557;28;20230;-74
2023/08/09 04:15:44;;;;;;;1.17;1.08;;;17.70;99.90;;;;;;5059604;28;20816;-73
2023/08/09 04:18:11;;;;;;;1.00;1.00;;;17.70;99.90;;;;;;5056452;28;20233;-75
2023/08/09 04:20:40;;;;;;;1.17;1.17;;;17.70;99.90;;;;;;5057975;28;20222;-73
2023/08/09 04:23:07;;;;;;;1.23;1.15;;;17.70;99.90;;;;;;5058584;28;20198;-73
2023/08/09 04:25:34;;;;;;;1.33;1.20;;;17.70;99.90;;;;;;5057656;28;20251;-73
2023/08/09 04:28:01;;;;;;;1.20;1.10;;;17.70;99.90;;;;;;5062689;28;20774;-74
2023/08/09 04:30:28;;;;;;;1.25;1.15;;;17.70;99.90;;;;;;5085433;28;20202;-74
2023/08/09 04:32:57;;;;;;;2.13;1.50;;;17.60;99.90;;;;;;5061697;28;20293;-73
2023/08/09 04:35:24;;;;;;;3.35;1.30;;;17.60;99.90;;;;;;5058232;28;20745;-74
2023/08/09 04:37:51;;;;;;;2.55;1.33;;;17.70;99.90;;;;;;5058217;28;20222;-74
2023/08/09 04:40:18;;;;;;;1.00;1.00;;;17.70;99.90;;;;;;5058651;28;20293;-73
2023/08/09 04:42:47;;;;;;;2.42;1.35;;;17.70;99.90;;;;;;5067216;28;20263;-73
2023/08/09 04:45:15;;;;;;;1.08;1.00;;;17.70;99.90;;;;;;5061560;28;20739;-73
2023/08/09 04:47:42;;;;;;;1.05;1.05;;;17.70;99.90;;;;;;5057813;28;20276;-75
2023/08/09 04:50:12;;;;;;;1.45;1.35;;;17.70;99.90;;;;;;5058292;28;20281;-74
2023/08/09 04:52:39;;;;;;;1.13;1.08;;;17.70;99.90;;;;;;5061100;28;20203;-74
2023/08/09 04:55:06;;;;;;;1.73;1.27;;;17.80;99.90;;;;;;5058024;28;20287;-74
2023/08/09 04:57:33;;;;;;;1.05;1.05;;;17.80;99.90;;;;;;5061169;28;20249;-73
2023/08/09 05:00:00;;;;;;;1.25;1.15;;;17.80;99.90;;;;;;5060858;28;20285;-73
2023/08/09 05:02:27;;;;;;;1.10;1.08;;;17.80;99.90;;;;;;5058013;28;20233;-73
2023/08/09 05:04:54;;;;;;;1.35;1.10;;;17.80;99.90;;;;;;5062174;28;20250;-73
2023/08/09 05:07:22;;;;;;;1.23;1.13;;;17.80;99.90;;;;;;5057518;28;20303;-74
2023/08/09 05:09:49;;;;;;;1.15;1.05;;;17.90;99.90;;;;;;5061599;28;20316;-74
2023/08/09 05:12:16;;;;;;;1.20;1.10;;;17.90;99.90;;;;;;5061098;28;20242;-73
2023/08/09 05:14:43;;;;;;;1.15;1.05;;;18.00;99.90;;;;;;5058587;28;20285;-73
2023/08/09 05:17:10;;;;;;;1.10;1.10;;;18.00;99.90;;;;;;5057025;28;20301;-73
2023/08/09 05:19:37;;;;;;;1.10;1.00;;;18.10;99.90;;;;;;5054016;28;20870;-74
2023/08/09 05:22:04;;;;;;;0.98;0.98;;;18.10;99.90;;;;;;5059232;28;20222;-74
2023/08/09 05:24:33;;;;;;;1.20;1.10;;;18.10;99.90;;;;;;5057710;28;20229;-74
2023/08/09 05:27:00;;;;;;;1.58;0.80;;;18.10;99.90;;;;;;5056529;28;20202;-74
2023/08/09 05:29:27;;;;;;;1.70;1.35;;;18.10;99.90;;;;;;5054966;28;20237;-74
2023/08/09 05:31:54;;;;;;;1.48;1.38;;;18.10;99.90;;;;;;5054717;28;20251;-73
2023/08/09 05:34:20;;;;;;;1.10;1.00;;;18.10;99.90;;;;;;5057884;28;21096;-74
2023/08/09 05:36:47;;;;;;;1.30;1.20;;;18.10;99.90;;;;;;5055863;28;20336;-74
2023/08/09 05:39:14;;;;;;;1.48;1.38;;;18.00;99.90;;;;;;5056682;28;20881;-74
2023/08/09 05:41:43;;;;;;;16.75;5.15;;;17.90;99.90;;;;;;5056665;28;20208;-75
2023/08/09 05:44:09;;;;;;;13.50;4.78;;;18.00;99.90;;;;;;5055865;28;20337;-74
2023/08/09 05:46:36;;;;;;;7.80;3.70;;;18.20;99.90;;;;;;5059404;28;20327;-74
2023/08/09 05:49:04;;;;;;;3.97;2.42;;;18.30;99.90;;;;;;5059329;28;20797;-74
2023/08/09 05:51:31;;;;;;;3.20;2.00;;;18.40;99.90;;;;;;5059007;28;20226;-74
2023/08/09 05:53:58;;;;;;;4.45;1.98;;;18.50;99.90;;;;;;5057121;28;20712;-75
2023/08/09 05:56:25;;;;;;;1.80;1.60;;;18.50;99.90;;;;;;5054666;28;20289;-74
2023/08/09 05:58:54;;;;;;;1.88;1.60;;;18.50;99.90;;;;;;5057796;28;20222;-74
2023/08/09 06:01:21;;;;;;;1.63;1.20;;;18.50;99.90;;;;;;5056484;28;20267;-75
2023/08/09 06:03:48;;;;;;;1.20;1.20;;;18.60;99.90;;;;;;5055593;28;20221;-74
2023/08/09 06:06:15;;;;;;;1.40;1.30;;;18.60;99.90;;;;;;5062683;28;20629;-75
2023/08/09 06:08:42;;;;;;;2.08;1.15;;;18.50;99.90;;;;;;5067546;28;20772;-75
2023/08/09 06:11:09;;;;;;;1.40;1.30;;;18.60;99.90;;;;;;5063562;28;20201;-74
2023/08/09 06:13:36;;;;;;;1.77;1.67;;;18.60;99.90;;;;;;5057917;28;20218;-75
2023/08/09 06:16:05;;;;;;;2.05;1.48;;;18.50;99.90;;;;;;5058536;28;20225;-76
2023/08/09 06:18:32;;;;;;;2.60;1.75;;;18.50;99.90;;;;;;5055388;28;20289;-74
2023/08/09 06:20:59;;;;;;;1.45;1.30;;;18.30;99.90;;;;;;5057384;28;20210;-74
2023/08/09 06:23:26;;;;;;;1.50;1.40;;;18.30;99.90;;;;;;5053900;28;20328;-74
2023/08/09 06:25:53;;;;;;;1.80;1.70;;;18.20;99.90;;;;;;5069514;28;20208;-75
2023/08/09 06:28:20;;;;;;;3.33;1.52;;;18.20;99.90;;;;;;5080021;28;20222;-74
2023/08/09 06:30:47;;;;;;;1.65;1.55;;;18.20;99.90;;;;;;5055512;28;20264;-75
2023/08/09 06:33:16;;;;;;;1.52;1.42;;;18.20;99.90;;;;;;5058139;28;20313;-74
2023/08/09 06:35:43;;;;;;;2.13;1.55;;;18.30;99.90;;;;;;5055520;28;20259;-74
2023/08/09 06:38:10;;;;;;;3.90;1.77;;;18.30;99.90;;;;;;5057948;28;20186;-75
2023/08/09 06:40:39;;;;;;;2.50;1.65;;;18.30;99.90;;;;;;5058601;28;20205;-75
2023/08/09 06:43:06;;;;;;;1.48;1.38;;;18.30;99.90;;;;;;5057531;28;20205;-74
2023/08/09 06:45:33;;;;;;;1.50;1.40;;;18.30;99.90;;;;;;5056789;28;20202;-75
2023/08/09 06:48:00;;;;;;;1.30;1.20;;;18.20;99.90;;;;;;5054349;28;20226;-74
2023/08/09 06:50:29;;;;;;;1.30;1.20;;;18.20;99.90;;;;;;5058081;28;20202;-75
2023/08/09 06:52:56;;;;;;;1.88;1.40;;;18.10;99.90;;;;;;5056551;28;20283;-74
2023/08/09 06:55:23;;;;;;;1.63;1.52;;;18.10;99.90;;;;;;5054107;28;20202;-74
2023/08/09 06:57:50;;;;;;;2.00;1.80;;;18.10;99.90;;;;;;5056079;28;20198;-74
2023/08/09 07:00:18;;;;;;;1.60;1.50;;;18.10;99.90;;;;;;5053767;28;20226;-74
2023/08/09 07:02:46;;;;;;;1.55;1.45;;;18.10;99.90;;;;;;5055513;28;20230;-74
2023/08/09 07:05:18;;;;;;;1.70;1.55;;;18.10;99.90;;;;;;5056053;28;20220;-75
2023/08/09 07:07:48;;;;;;;1.67;1.58;;;18.10;99.90;;;;;;5056621;28;20279;-74
2023/08/09 07:10:16;;;;;;;1.65;1.55;;;18.10;99.90;;;;;;5057446;28;20206;-74
2023/08/09 07:12:43;;;;;;;1.45;1.35;;;18.20;99.90;;;;;;5053174;28;20198;-75
2023/08/09 07:15:12;;;;;;;1.58;1.48;;;18.20;99.90;;;;;;5050743;28;20223;-75
2023/08/09 07:17:39;;;;;;;2.33;1.50;;;18.30;99.90;;;;;;5055312;28;20289;-75
2023/08/09 07:20:09;;;;;;;3.28;1.90;;;18.30;99.90;;;;;;5055510;28;20289;-75
2023/08/09 07:22:36;;;;;;;1.80;1.70;;;18.20;99.90;;;;;;5053258;28;20279;-74
2023/08/09 07:25:05;;;;;;;2.25;1.70;;;18.20;99.90;;;;;;5053122;28;20217;-74
2023/08/09 07:27:33;;;;;;;1.77;1.67;;;18.10;99.90;;;;;;5054280;28;20194;-74
2023/08/09 07:30:00;;;;;;;1.83;1.73;;;18.10;99.90;;;;;;5051861;28;20332;-74
2023/08/09 07:32:27;;;;;;;1.60;1.50;;;18.10;99.90;;;;;;5057432;28;20800;-73
2023/08/09 07:34:54;;;;;;;1.75;1.65;;;18.10;99.90;;;;;;5055230;28;20219;-74
2023/08/09 07:37:21;;;;;;;2.63;1.80;;;18.10;99.90;;;;;;5056301;28;20284;-74
2023/08/09 07:39:48;;;;;;;1.50;1.40;;;18.10;99.90;;;;;;5052732;28;20199;-75
2023/08/09 07:42:16;;;;;;;1.52;1.40;;;18.20;99.90;;;;;;5057128;28;20202;-74
2023/08/09 07:44:43;;;;;;;1.92;1.63;;;18.10;99.90;;;;;;5055681;28;20963;-74
2023/08/09 07:47:10;;;;;;;1.63;1.48;;;18.10;99.90;;;;;;5055112;28;20210;-74
2023/08/09 07:49:37;;;;;;;1.50;1.40;;;18.10;99.90;;;;;;5053228;28;20233;-74
2023/08/09 07:52:04;;;;;;;1.42;1.33;;;18.10;99.90;;;;;;5051311;28;20272;-74
2023/08/09 07:54:31;;;;;;;1.80;1.55;;;18.10;99.90;;;;;;5051173;28;20279;-74
2023/08/09 07:56:58;;;;;;;1.73;1.50;;;18.20;99.90;;;;;;5054569;28;20279;-74
2023/08/09 07:59:26;;;;;;;2.10;1.55;;;18.20;99.90;;;;;;5056786;28;20277;-75
2023/08/09 08:01:53;;;;;;;1.80;1.70;;;18.20;99.90;;;;;;5056162;28;20294;-75
2023/08/09 08:04:20;;;;;;;1.70;1.60;;;18.20;99.90;;;;;;5050425;28;20370;-74
2023/08/09 08:06:48;;;;;;;1.70;1.60;;;18.10;99.90;;;;;;5055387;28;20255;-74
2023/08/09 08:09:16;;;;;;;2.55;1.50;;;18.10;99.90;;;;;;5057870;28;20226;-74
2023/08/09 08:11:44;;;;;;;1.92;1.80;;;18.10;99.90;;;;;;5059966;28;20202;-74
2023/08/09 08:14:11;;;;;;;2.20;2.00;;;18.10;99.90;;;;;;5054999;28;20232;-74
2023/08/09 08:16:39;;;;;;;3.05;1.83;;;18.20;99.90;;;;;;5054049;28;20194;-74
2023/08/09 08:19:06;;;;;;;2.03;1.80;;;18.10;99.90;;;;;;5054708;28;20592;-74
2023/08/09 08:21:33;;;;;;;3.15;1.60;;;18.20;99.90;;;;;;5056996;28;20202;-74
2023/08/09 08:24:00;;;;;;;1.70;1.50;;;18.40;99.90;;;;;;5077834;28;20251;-75
2023/08/09 08:26:27;;;;;;;2.08;1.80;;;18.60;99.90;;;;;;5078772;28;20653;-74
2023/08/09 08:28:54;;;;;;;1.60;1.45;;;18.90;99.90;;;;;;5057255;28;20238;-74
2023/08/09 08:31:22;;;;;;;1.63;1.42;;;19.10;99.90;;;;;;5054683;28;20234;-75
2023/08/09 08:33:51;;;;;;;1.75;1.63;;;19.30;99.90;;;;;;5058399;28;20838;-74
2023/08/09 08:36:19;;;;;;;3.25;1.80;;;19.50;99.90;;;;;;5057995;28;20226;-74
2023/08/09 08:38:46;;;;;;;1.50;1.40;;;19.60;99.90;;;;;;5057803;28;20199;-75
2023/08/09 08:41:13;;;;;;;1.48;1.30;;;19.70;99.90;;;;;;5059551;28;20202;-74
2023/08/09 08:43:40;;;;;;;1.30;1.20;;;19.80;99.90;;;;;;5058347;28;20245;-74
2023/08/09 08:46:07;;;;;;;1.63;1.30;;;19.90;99.90;;;;;;5053223;28;20294;-74
2023/08/09 08:48:34;;;;;;;2.17;1.30;;;20.10;99.90;;;;;;5060069;28;20218;-74
2023/08/09 08:51:07;;;;;;;1.30;1.20;;;20.20;99.90;;;;;;5056268;28;20272;-73
2023/08/09 08:53:34;;;;;;;1.48;1.33;;;20.10;99.90;;;;;;5057333;28;20253;-75
2023/08/09 08:56:02;;;;;;;1.40;1.23;;;20.10;99.90;;;;;;5058144;28;20245;-74
2023/08/09 08:58:29;;;;;;;1.23;1.13;;;20.20;99.90;;;;;;5056988;28;21873;-73
2023/08/09 09:00:56;;;;;;;1.83;1.48;;;20.40;99.90;;;;;;5058230;28;20198;-75
2023/08/09 09:03:23;;;;;;;1.40;1.30;;;20.70;99.90;;;;;;5055094;28;20329;-76
2023/08/09 09:05:50;;;;;;;1.50;1.40;;;21.00;99.90;;;;;;5056633;28;20234;-73
2023/08/09 09:08:19;;;;;;;1.70;1.60;;;21.30;99.90;;;;;;5054036;28;20648;-77
2023/08/09 09:10:48;;;;;;;1.35;1.25;;;21.60;99.90;;;;;;5049303;28;20248;-76
2023/08/09 09:13:25;;;;;;;1.95;1.33;;;21.60;99.90;;;;;;5052733;28;20222;-76
2023/08/09 09:15:53;;;;;;;1.88;1.25;;;21.50;99.90;;;;;;5048883;28;20198;-76
2023/08/09 09:18:21;;;;;;;1.38;1.33;;;21.30;99.90;;;;;;5048640;28;20203;-75
2023/08/09 09:20:51;;;;;;;1.30;1.20;;;21.20;99.90;;;;;;5047975;28;20803;-75
2023/08/09 09:23:29;;;;;;;1.40;1.30;;;21.30;99.90;;;;;;5054283;28;20318;-75
2023/08/09 09:26:04;;;;;;;1.60;1.50;;;21.50;99.90;;;;;;5052018;28;20251;-76
2023/08/09 09:28:38;;;;;;;1.10;1.10;;;21.70;99.90;;;;;;5052196;28;20756;-77
2023/08/09 09:31:05;;;;;;;2.90;1.42;;;21.90;99.90;;;;;;5047746;28;20233;-76
2023/08/09 09:33:35;;;;;;;1.63;1.17;;;22.20;99.90;;;;;;5052157;28;20673;-75
2023/08/09 09:36:03;;;;;;;3.22;1.20;;;22.50;99.90;;;;;;5052691;28;20627;-76
2023/08/09 09:38:32;;;;;;;1.40;1.30;;;22.80;99.90;;;;;;5051145;28;20367;-76
2023/08/09 09:41:01;;;;;;;1.10;1.10;;;22.80;99.90;;;;;;5055886;28;20665;-76
2023/08/09 09:43:32;;;;;;;1.63;1.30;;;22.60;99.90;;;;;;5062951;28;20270;-76
2023/08/09 09:45:59;;;;;;;2.30;1.50;;;22.50;99.90;;;;;;5059392;28;20386;-76
2023/08/09 09:48:29;;;;;;;2.53;1.42;;;22.20;99.90;;;;;;5056888;28;20228;-75
2023/08/09 09:50:57;;;;;;;2.28;1.40;;;22.10;99.90;;;;;;5055014;28;20209;-76
2023/08/09 09:53:24;;;;;;;2.05;1.50;;;21.80;99.90;;;;;;5055473;28;20275;-75
2023/08/09 09:55:52;;;;;;;1.67;1.42;;;21.60;99.90;;;;;;5055286;28;20400;-77
2023/08/09 09:58:19;;;;;;;1.30;1.20;;;21.60;99.90;;;;;;5054490;28;20234;-77
2023/08/09 10:00:48;;;;;;;1.52;1.42;;;21.50;99.90;;;;;;5056174;28;20206;-76
2023/08/09 10:03:18;;;;;;;1.80;1.70;;;21.30;99.90;;;;;;5054793;28;20322;-76
2023/08/09 10:05:48;;;;;;;1.48;1.30;;;21.10;99.90;;;;;;5052799;28;20289;-75
2023/08/09 10:08:18;;;;;;;1.20;1.10;;;21.00;99.90;;;;;;5051107;28;20261;-73
2023/08/09 10:10:48;;;;;;;1.20;1.10;;;21.00;99.90;;;;;;5054817;28;20295;-74
2023/08/09 10:13:21;;;;;;;1.65;1.35;;;21.20;99.90;;;;;;5055673;28;20303;-75
2023/08/09 10:15:53;;;;;;;2.25;1.48;;;21.40;99.90;;;;;;5056074;28;20289;-75
2023/08/09 10:18:25;;;;;;;1.40;1.30;;;21.50;99.90;;;;;;5057511;28;20198;-74
2023/08/09 10:20:56;;;;;;;1.70;1.58;;;21.60;99.90;;;;;;5063073;28;20612;-75
2023/08/09 10:23:25;;;;;;;2.50;1.30;;;21.70;99.90;;;;;;5084364;28;20227;-76
2023/08/09 10:25:54;;;;;;;1.77;1.55;;;21.60;99.90;;;;;;5053112;28;20563;-74
2023/08/09 10:28:47;;;;;;;1.75;1.60;;;21.50;99.90;;;;;;5054450;28;20210;-74
2023/08/09 10:31:15;;;;;;;2.38;1.30;;;21.50;99.90;;;;;;5047778;28;20738;-75
2023/08/09 10:34:03;;;;;;;1.80;1.52;;;21.40;99.90;;;;;;5054382;28;20576;-75
2023/08/09 10:36:34;;;;;;;1.50;1.40;;;21.50;99.90;;;;;;5049444;28;20882;-75
2023/08/09 10:39:09;;;;;;;1.48;1.38;;;21.60;99.90;;;;;;5049194;28;20226;-75
2023/08/09 10:41:36;;;;;;;1.45;1.30;;;21.70;99.90;;;;;;5050122;28;20210;-75
2023/08/09 10:44:06;;;;;;;1.65;1.30;;;21.80;99.90;;;;;;5049781;28;20219;-77
2023/08/09 10:46:34;;;;;;;1.35;1.23;;;21.80;99.90;;;;;;5050905;28;20237;-75
2023/08/09 10:49:03;;;;;;;2.45;1.38;;;21.80;99.90;;;;;;5048870;28;20787;-75
2023/08/09 10:51:30;;;;;;;1.60;1.50;;;21.90;99.90;;;;;;5053954;28;20202;-75
2023/08/09 10:53:58;;;;;;;1.80;1.50;;;22.00;99.90;;;;;;5054124;28;20304;-77
2023/08/09 10:56:35;;;;;;;1.52;1.42;;;22.20;99.90;;;;;;5052491;28;20285;-77
2023/08/09 10:59:07;;;;;;;1.67;1.48;;;22.50;99.90;;;;;;5051068;28;20400;-76
2023/08/09 11:01:35;;;;;;;1.73;1.50;;;22.60;99.90;;;;;;5052671;28;20210;-76
2023/08/09 11:04:04;;;;;;;1.45;1.35;;;22.60;99.90;;;;;;5050546;28;20229;-75
2023/08/09 11:06:39;;;;;;;1.85;1.35;;;22.50;99.90;;;;;;5054896;28;20298;-74
2023/08/09 11:09:08;;;;;;;2.58;1.40;;;22.30;99.90;;;;;;5048195;28;20308;-74
2023/08/09 11:11:36;;;;;;;1.63;1.40;;;22.20;99.90;;;;;;5053737;28;20212;-74
2023/08/09 11:14:03;;;;;;;1.50;1.40;;;22.20;99.90;;;;;;5050691;28;20241;-73
2023/08/09 11:16:32;;;;;;;1.55;1.42;;;22.20;99.90;;;;;;5055643;28;20206;-75
2023/08/09 11:19:04;;;;;;;1.67;1.40;;;22.00;99.90;;;;;;5051317;28;20267;-76
2023/08/09 11:21:39;;;;;;;1.88;1.35;;;22.00;99.90;;;;;;5057379;28;20202;-73
2023/08/09 11:24:08;;;;;;;1.92;1.20;;;22.00;99.90;;;;;;5056687;28;20778;-72
2023/08/09 11:26:36;;;;;;;1.70;1.40;;;22.10;99.90;;;;;;5050558;28;20211;-74
2023/08/09 11:29:03;;;;;;;1.92;1.20;;;22.20;99.90;;;;;;5051069;28;20213;-72
2023/08/09 11:31:33;;;;;;;1.30;1.20;;;22.60;99.90;;;;;;5049888;28;20194;-74
2023/08/09 11:34:00;;;;;;;1.50;1.40;;;23.00;99.90;;;;;;5050335;28;20344;-73
2023/08/09 11:36:29;;;;;;;1.50;1.17;;;23.20;99.90;;;;;;5058278;28;20228;-73
2023/08/09 11:38:56;;;;;;;1.35;1.25;;;23.30;99.90;;;;;;5049034;28;20194;-73
2023/08/09 11:41:25;;;;;;;1.70;1.50;;;23.40;99.90;;;;;;5054932;28;20264;-73
2023/08/09 11:43:52;;;;;;;1.77;1.60;;;23.40;99.90;;;;;;5058033;28;20304;-73
2023/08/09 11:46:22;;;;;;;1.48;1.10;;;23.30;99.90;;;;;;5059371;28;20233;-74
2023/08/09 11:48:51;;;;;;;2.60;1.30;;;23.10;99.90;;;;;;5059461;28;20198;-74
2023/08/09 11:51:21;;;;;;;2.88;1.40;;;23.10;99.90;;;;;;5055934;28;20203;-73
2023/08/09 11:53:49;;;;;;;1.40;1.30;;;23.10;99.90;;;;;;5058906;28;20327;-72
2023/08/09 11:56:19;;;;;;;2.95;1.33;;;23.10;99.90;;;;;;5058571;28;20202;-73
2023/08/09 11:58:47;;;;;;;1.75;1.42;;;23.10;99.90;;;;;;5055588;28;20198;-74
2023/08/09 12:01:16;;;;;;;1.35;1.15;;;23.30;99.90;;;;;;5058879;28;20251;-73
2023/08/09 12:03:44;;;;;;;1.92;1.20;;;23.40;99.90;;;;;;5055810;28;20241;-73
2023/08/09 12:06:12;;;;;;;1.80;1.35;;;23.50;99.90;;;;;;5061408;28;20311;-73
2023/08/09 12:08:39;;;;;;;1.25;1.15;;;23.60;99.90;;;;;;5053520;28;20233;-73
2023/08/09 12:11:07;;;;;;;2.05;1.35;;;23.60;99.90;;;;;;5056343;28;20253;-72
2023/08/09 12:13:34;;;;;;;2.28;1.20;;;23.60;99.90;;;;;;5058278;28;20307;-73
2023/08/09 12:16:06;;;;;;;1.40;1.30;;;23.60;99.90;;;;;;5054198;28;20226;-73
2023/08/09 12:18:35;;;;;;;2.10;1.13;;;23.70;99.90;;;;;;5067951;28;20221;-72
2023/08/09 12:21:05;;;;;;;1.60;1.35;;;23.90;99.90;;;;;;5076503;28;20271;-73
2023/08/09 12:23:35;;;;;;;2.45;1.60;;;24.30;99.90;;;;;;5060830;28;20230;-73
2023/08/09 12:26:01;;;;;;;2.75;1.50;;;24.70;99.90;;;;;;5056048;28;20256;-75
2023/08/09 12:28:28;;;;;;;1.50;1.40;;;24.60;99.90;;;;;;5058430;28;20282;-73
2023/08/09 12:30:55;;;;;;;3.85;1.40;;;24.50;99.90;;;;;;5053375;28;20226;-72
2023/08/09 12:33:22;;;;;;;1.35;1.20;;;24.40;99.90;;;;;;5055839;28;20284;-71
2023/08/09 12:35:49;;;;;;;2.05;1.40;;;24.20;99.90;;;;;;5056459;28;20282;-73
2023/08/09 12:38:16;;;;;;;1.20;1.10;;;24.00;99.90;;;;;;5057976;28;20210;-73
2023/08/09 12:40:44;;;;;;;1.40;1.30;;;24.00;99.90;;;;;;5060463;28;20286;-73
2023/08/09 12:43:11;;;;;;;1.30;1.20;;;24.20;99.90;;;;;;5058516;28;20271;-73
2023/08/09 12:45:38;;;;;;;1.42;1.20;;;24.50;99.90;;;;;;5057598;28;20202;-73
2023/08/09 12:48:06;;;;;;;1.30;1.20;;;24.80;99.90;;;;;;5057813;28;20277;-73
2023/08/09 12:50:33;;;;;;;1.00;1.00;;;25.10;99.90;;;;;;5055890;28;20227;-73
2023/08/09 12:53:00;;;;;;;1.20;1.10;;;25.40;99.90;;;;;;5057057;28;20198;-73